sensor_id;sensor_type;location;lat;lon;timestamp;pressure;altitude;pressure_sealevel;temperature;humidity
33795;BME280;51430;52.242;21.118;2023-04-10T04:57:38;101165.91;;;7.69;100.00
33795;BME280;51430;52.242;21.118;2023-04-10T05:01:12;101172.60;;;7.71;100.00
33795;BME280;51430;52.242;21.118;2023-04-10T05:04:46;101175.13;;;7.79;100.00
33795;BME280;51430;52.242;21.118;2023-04-10T05:19:13;101191.38;;;8.75;100.00
33795;BME280;51430;52.242;21.118;2023-04-10T05:21:39;101198.21;;;9.02;100.00
33795;BME280;51430;52.242;21.118;2023-04-10T05:24:32;101194.83;;;9.22;99.92
33795;BME280;51430;52.242;21.118;2023-04-10T05:27:01;101198.63;;;9.35;99.30
33795;BME280;51430;52.242;21.118;2023-04-10T05:29:56;101200.20;;;9.58;98.85
33795;BME280;51430;52.242;21.118;2023-04-10T05:59:26;101222.52;;;11.38;90.63
33795;BME280;51430;52.242;21.118;2023-04-10T06:13:35;101231.03;;;14.62;79.05
33795;BME280;51430;52.242;21.118;2023-04-10T09:38:49;101224.30;;;28.72;34.35
33795;BME280;51430;52.242;21.118;2023-04-10T10:05:47;101199.55;;;30.39;32.57
33795;BME280;51430;52.242;21.118;2023-04-10T10:34:34;101166.97;;;29.67;31.92
33795;BME280;51430;52.242;21.118;2023-04-10T10:37:44;101165.60;;;28.76;31.58
33795;BME280;51430;52.242;21.118;2023-04-10T11:05:55;101148.42;;;31.46;28.42
33795;BME280;51430;52.242;21.118;2023-04-10T11:09:43;101142.50;;;29.54;30.32
33795;BME280;51430;52.242;21.118;2023-04-10T11:13:14;101138.30;;;28.17;32.19
33795;BME280;51430;52.242;21.118;2023-04-10T11:16:15;101134.94;;;29.80;31.45
33795;BME280;51430;52.242;21.118;2023-04-10T11:20:04;101135.39;;;30.91;29.41
33795;BME280;51430;52.242;21.118;2023-04-10T11:24:15;101127.16;;;28.52;31.54
33795;BME280;51430;52.242;21.118;2023-04-10T11:27:38;101123.02;;;27.89;32.36
33795;BME280;51430;52.242;21.118;2023-04-10T11:31:21;101113.61;;;26.99;31.68
33795;BME280;51430;52.242;21.118;2023-04-10T11:35:08;101101.48;;;26.28;32.43
33795;BME280;51430;52.242;21.118;2023-04-10T11:39:07;101102.40;;;28.69;32.64
33795;BME280;51430;52.242;21.118;2023-04-10T11:42:22;101100.46;;;30.56;30.11
33795;BME280;51430;52.242;21.118;2023-04-10T11:46:23;101101.80;;;29.17;30.88
33795;BME280;51430;52.242;21.118;2023-04-10T11:49:52;101096.03;;;27.39;33.25
33795;BME280;51430;52.242;21.118;2023-04-10T11:53:29;101083.70;;;26.20;35.31
33795;BME280;51430;52.242;21.118;2023-04-10T11:57:11;101074.23;;;25.38;36.60
33795;BME280;51430;52.242;21.118;2023-04-10T12:01:02;101068.02;;;24.18;38.92
33795;BME280;51430;52.242;21.118;2023-04-10T12:05:08;101057.69;;;24.55;37.80
33795;BME280;51430;52.242;21.118;2023-04-10T12:08:20;101059.44;;;27.16;34.03
33795;BME280;51430;52.242;21.118;2023-04-10T12:11:19;101057.27;;;29.41;31.08
33795;BME280;51430;52.242;21.118;2023-04-10T12:14:57;101053.77;;;30.18;29.94
33795;BME280;51430;52.242;21.118;2023-04-10T12:18:33;101047.03;;;28.91;31.42
33795;BME280;51430;52.242;21.118;2023-04-10T12:22:27;101043.15;;;27.70;33.08
33795;BME280;51430;52.242;21.118;2023-04-10T12:25:45;101034.76;;;26.76;34.07
33795;BME280;51430;52.242;21.118;2023-04-10T13:00:06;100999.95;;;24.18;35.85
33795;BME280;51430;52.242;21.118;2023-04-10T13:03:05;100995.15;;;23.65;38.89
33795;BME280;51430;52.242;21.118;2023-04-10T13:06:26;100993.20;;;22.70;40.92
33795;BME280;51430;52.242;21.118;2023-04-10T13:09:59;100992.48;;;21.71;43.16
33795;BME280;51430;52.242;21.118;2023-04-10T13:13:40;100985.23;;;20.65;45.92
33795;BME280;51430;52.242;21.118;2023-04-10T13:17:23;100982.97;;;20.06;47.62
33795;BME280;51430;52.242;21.118;2023-04-10T13:21:20;100984.20;;;19.98;48.72
33795;BME280;51430;52.242;21.118;2023-04-10T13:24:38;100984.25;;;19.42;51.05
33795;BME280;51430;52.242;21.118;2023-04-10T13:28:44;100985.48;;;19.28;51.98
33795;BME280;51430;52.242;21.118;2023-04-10T13:31:55;100983.38;;;19.05;53.34
33795;BME280;51430;52.242;21.118;2023-04-10T13:35:38;100982.91;;;18.29;56.20
33795;BME280;51430;52.242;21.118;2023-04-10T13:39:10;100975.27;;;17.39;59.60
33795;BME280;51430;52.242;21.118;2023-04-10T13:42:50;100967.80;;;16.51;64.47
33795;BME280;51430;52.242;21.118;2023-04-10T13:46:29;100960.45;;;16.25;63.64
33795;BME280;51430;52.242;21.118;2023-04-10T13:50:07;100957.80;;;15.83;62.39
33795;BME280;51430;52.242;21.118;2023-04-10T13:52:34;100957.85;;;15.66;64.25
33795;BME280;51430;52.242;21.118;2023-04-10T13:55:04;100952.03;;;15.60;65.10
33795;BME280;51430;52.242;21.118;2023-04-10T13:57:33;100950.84;;;15.54;64.49
33795;BME280;51430;52.242;21.118;2023-04-10T14:00:01;100945.19;;;15.66;64.45
33795;BME280;51430;52.242;21.118;2023-04-10T14:02:32;100943.02;;;15.77;64.29
33795;BME280;51430;52.242;21.118;2023-04-10T14:05:14;100939.52;;;15.84;63.69
33795;BME280;51430;52.242;21.118;2023-04-10T14:08:50;100935.08;;;16.01;63.77
33795;BME280;51430;52.242;21.118;2023-04-10T14:12:50;100933.27;;;16.16;63.50
33795;BME280;51430;52.242;21.118;2023-04-10T14:16:07;100929.96;;;16.38;65.45
33795;BME280;51430;52.242;21.118;2023-04-10T14:18:35;100922.48;;;16.56;68.77
33795;BME280;51430;52.242;21.118;2023-04-10T14:21:04;100926.52;;;16.82;67.39
33795;BME280;51430;52.242;21.118;2023-04-10T14:23:32;100926.61;;;17.18;68.20
33795;BME280;51430;52.242;21.118;2023-04-10T14:26:00;100924.41;;;17.44;68.59
33795;BME280;51430;52.242;21.118;2023-04-10T14:28:27;100930.44;;;17.56;66.76
33795;BME280;51430;52.242;21.118;2023-04-10T14:30:55;100929.45;;;17.68;68.50
33795;BME280;51430;52.242;21.118;2023-04-10T14:33:23;100925.42;;;17.73;69.23
33795;BME280;51430;52.242;21.118;2023-04-10T14:35:52;100922.51;;;17.87;68.15
33795;BME280;51430;52.242;21.118;2023-04-10T14:40:08;100920.69;;;18.26;63.69
33795;BME280;51430;52.242;21.118;2023-04-10T14:43:47;100913.30;;;19.97;61.34
33795;BME280;51430;52.242;21.118;2023-04-10T14:47:24;100919.14;;;23.97;45.73
33795;BME280;51430;52.242;21.118;2023-04-10T14:51:02;100917.36;;;22.41;48.13
33795;BME280;51430;52.242;21.118;2023-04-10T14:54:42;100912.65;;;21.24;50.75
33795;BME280;51430;52.242;21.118;2023-04-10T14:58:18;100910.30;;;21.40;51.93
33795;BME280;51430;52.242;21.118;2023-04-10T15:01:56;100909.27;;;21.89;51.86
33795;BME280;51430;52.242;21.118;2023-04-10T15:05:59;100907.36;;;21.79;51.38
33795;BME280;51430;52.242;21.118;2023-04-10T15:09:13;100900.99;;;20.87;53.14
33795;BME280;51430;52.242;21.118;2023-04-10T15:12:54;100892.50;;;20.21;55.50
33795;BME280;51430;52.242;21.118;2023-04-10T15:16:33;100892.64;;;21.43;52.76
33795;BME280;51430;52.242;21.118;2023-04-10T15:19:01;100895.02;;;24.05;46.23
33795;BME280;51430;52.242;21.118;2023-04-10T15:25:56;100908.13;;;31.54;32.36
33795;BME280;51430;52.242;21.118;2023-04-10T15:28:24;100908.41;;;32.69;30.34
33795;BME280;51430;52.242;21.118;2023-04-10T15:32:49;100902.79;;;33.76;28.70
33795;BME280;51430;52.242;21.118;2023-04-10T15:36:29;100902.05;;;34.26;27.02
33795;BME280;51430;52.242;21.118;2023-04-10T15:40:08;100899.46;;;34.55;26.34
33795;BME280;51430;52.242;21.118;2023-04-10T15:43:46;100896.25;;;34.27;26.11
33795;BME280;51430;52.242;21.118;2023-04-10T15:47:25;100889.85;;;33.42;27.51
33795;BME280;51430;52.242;21.118;2023-04-10T15:49:55;100887.48;;;32.22;29.05
33795;BME280;51430;52.242;21.118;2023-04-10T15:52:23;100885.37;;;31.54;29.74
33795;BME280;51430;52.242;21.118;2023-04-10T15:54:51;100882.09;;;31.57;28.97
33795;BME280;51430;52.242;21.118;2023-04-10T15:57:19;100885.06;;;31.73;28.94
33795;BME280;51430;52.242;21.118;2023-04-10T15:59:50;100884.59;;;32.03;28.90
33795;BME280;51430;52.242;21.118;2023-04-10T16:02:19;100882.27;;;31.82;28.72
33795;BME280;51430;52.242;21.118;2023-04-10T16:05:14;100886.73;;;31.17;29.90
33795;BME280;51430;52.242;21.118;2023-04-10T16:07:42;100883.21;;;30.48;30.74
33795;BME280;51430;52.242;21.118;2023-04-10T16:10:10;100883.36;;;29.92;30.86
33795;BME280;51430;52.242;21.118;2023-04-10T16:15:15;100874.36;;;28.32;32.25
33795;BME280;51430;52.242;21.118;2023-04-10T16:29:21;100867.08;;;27.50;31.68
33795;BME280;51430;52.242;21.118;2023-04-10T16:32:09;100860.59;;;26.54;32.20
33795;BME280;51430;52.242;21.118;2023-04-10T16:36:08;100853.77;;;24.81;35.28
33795;BME280;51430;52.242;21.118;2023-04-10T16:39:24;100847.08;;;22.50;38.20
33795;BME280;51430;52.242;21.118;2023-04-10T16:43:24;100846.22;;;20.99;40.81
33795;BME280;51430;52.242;21.118;2023-04-10T16:46:43;100842.36;;;19.92;42.77
33795;BME280;51430;52.242;21.118;2023-04-10T16:50:24;100836.61;;;19.26;44.61
33795;BME280;51430;52.242;21.118;2023-04-10T16:54:01;100834.29;;;18.70;45.94
33795;BME280;51430;52.242;21.118;2023-04-10T16:58:01;100833.67;;;18.37;47.13
33795;BME280;51430;52.242;21.118;2023-04-10T17:01:45;100829.73;;;17.97;48.32
33795;BME280;51430;52.242;21.118;2023-04-10T17:04:56;100830.59;;;17.57;48.45
33795;BME280;51430;52.242;21.118;2023-04-10T17:08:35;100829.70;;;17.28;49.01
33795;BME280;51430;52.242;21.118;2023-04-10T17:12:17;100826.72;;;16.96;50.47
33795;BME280;51430;52.242;21.118;2023-04-10T17:15:53;100824.59;;;16.71;51.88
33795;BME280;51430;52.242;21.118;2023-04-10T17:30:00;100824.42;;;16.29;53.65
33795;BME280;51430;52.242;21.118;2023-04-10T17:32:29;100825.36;;;15.96;55.59
33795;BME280;51430;52.242;21.118;2023-04-10T17:34:56;100826.05;;;15.89;56.44
33795;BME280;51430;52.242;21.118;2023-04-10T17:37:25;100825.31;;;15.78;56.87
33795;BME280;51430;52.242;21.118;2023-04-10T17:39:53;100825.63;;;15.68;56.50
33795;BME280;51430;52.242;21.118;2023-04-10T17:42:21;100824.53;;;15.59;57.42
33795;BME280;51430;52.242;21.118;2023-04-10T17:44:50;100823.53;;;15.46;57.06
33795;BME280;51430;52.242;21.118;2023-04-10T17:47:17;100824.15;;;15.40;58.50
33795;BME280;51430;52.242;21.118;2023-04-10T17:49:45;100822.73;;;15.31;59.35
33795;BME280;51430;52.242;21.118;2023-04-10T17:52:13;100821.23;;;15.19;59.86
33795;BME280;51430;52.242;21.118;2023-04-10T17:54:41;100819.94;;;15.04;59.75
33795;BME280;51430;52.242;21.118;2023-04-10T17:57:09;100816.97;;;14.90;59.77
33795;BME280;51430;52.242;21.118;2023-04-10T17:59:37;100816.70;;;14.80;61.01
33795;BME280;51430;52.242;21.118;2023-04-10T18:02:06;100816.94;;;14.76;61.70
33795;BME280;51430;52.242;21.118;2023-04-10T18:04:34;100817.32;;;14.65;62.79
33795;BME280;51430;52.242;21.118;2023-04-10T18:07:02;100816.54;;;14.54;63.99
33795;BME280;51430;52.242;21.118;2023-04-10T18:09:31;100820.58;;;14.44;63.83
33795;BME280;51430;52.242;21.118;2023-04-10T18:11:59;100817.27;;;14.39;63.56
33795;BME280;51430;52.242;21.118;2023-04-10T18:14:28;100817.86;;;14.39;63.28
33795;BME280;51430;52.242;21.118;2023-04-10T18:16:56;100820.17;;;14.32;63.11
33795;BME280;51430;52.242;21.118;2023-04-10T18:19:24;100819.79;;;14.28;63.51
33795;BME280;51430;52.242;21.118;2023-04-10T18:21:52;100814.52;;;14.26;63.93
33795;BME280;51430;52.242;21.118;2023-04-10T18:24:20;100815.35;;;14.23;64.25
33795;BME280;51430;52.242;21.118;2023-04-10T18:26:48;100813.77;;;14.16;64.21
33795;BME280;51430;52.242;21.118;2023-04-10T18:29:16;100809.03;;;14.08;64.05
33795;BME280;51430;52.242;21.118;2023-04-10T18:31:45;100810.18;;;14.03;65.17
33795;BME280;51430;52.242;21.118;2023-04-10T18:34:13;100808.33;;;13.97;65.85
33795;BME280;51430;52.242;21.118;2023-04-10T18:36:41;100804.80;;;13.87;66.11
33795;BME280;51430;52.242;21.118;2023-04-10T18:39:10;100806.00;;;13.77;66.70
33795;BME280;51430;52.242;21.118;2023-04-10T18:41:38;100808.11;;;13.71;67.08
33795;BME280;51430;52.242;21.118;2023-04-10T18:44:09;100807.61;;;13.64;68.07
33795;BME280;51430;52.242;21.118;2023-04-10T18:46:38;100806.01;;;13.56;68.73
33795;BME280;51430;52.242;21.118;2023-04-10T18:49:11;100806.36;;;13.47;69.17
33795;BME280;51430;52.242;21.118;2023-04-10T18:51:40;100801.19;;;13.42;69.32
33795;BME280;51430;52.242;21.118;2023-04-10T18:54:08;100796.56;;;13.36;69.35
33795;BME280;51430;52.242;21.118;2023-04-10T18:56:36;100794.84;;;13.31;69.95
33795;BME280;51430;52.242;21.118;2023-04-10T18:59:06;100796.13;;;13.29;69.73
33795;BME280;51430;52.242;21.118;2023-04-10T19:01:35;100799.02;;;13.25;69.24
33795;BME280;51430;52.242;21.118;2023-04-10T19:04:03;100797.94;;;13.32;68.98
33795;BME280;51430;52.242;21.118;2023-04-10T19:07:03;100795.88;;;13.27;69.05
33795;BME280;51430;52.242;21.118;2023-04-10T19:09:32;100790.84;;;13.09;69.68
33795;BME280;51430;52.242;21.118;2023-04-10T19:12:00;100790.91;;;13.15;69.89
33795;BME280;51430;52.242;21.118;2023-04-10T19:14:28;100789.13;;;13.11;70.01
33795;BME280;51430;52.242;21.118;2023-04-10T19:16:56;100790.48;;;13.05;70.43
33795;BME280;51430;52.242;21.118;2023-04-10T19:19:24;100785.59;;;13.01;70.94
33795;BME280;51430;52.242;21.118;2023-04-10T19:21:53;100783.98;;;13.05;71.31
33795;BME280;51430;52.242;21.118;2023-04-10T19:24:21;100781.02;;;13.07;71.79
33795;BME280;51430;52.242;21.118;2023-04-10T19:26:50;100782.52;;;13.08;72.01
33795;BME280;51430;52.242;21.118;2023-04-10T19:29:21;100780.67;;;13.05;72.27
33795;BME280;51430;52.242;21.118;2023-04-10T19:31:49;100781.61;;;12.95;72.74
33795;BME280;51430;52.242;21.118;2023-04-10T19:34:18;100782.15;;;12.91;73.06
33795;BME280;51430;52.242;21.118;2023-04-10T19:36:46;100779.11;;;12.89;73.34
33795;BME280;51430;52.242;21.118;2023-04-10T19:39:14;100780.52;;;12.83;73.72
33795;BME280;51430;52.242;21.118;2023-04-10T19:41:42;100774.39;;;12.76;73.01
33795;BME280;51430;52.242;21.118;2023-04-10T19:44:10;100775.30;;;12.76;72.86
33795;BME280;51430;52.242;21.118;2023-04-10T19:46:39;100770.89;;;12.78;73.05
33795;BME280;51430;52.242;21.118;2023-04-10T19:49:06;100770.00;;;12.76;72.58
33795;BME280;51430;52.242;21.118;2023-04-10T19:51:35;100771.55;;;12.77;72.52
33795;BME280;51430;52.242;21.118;2023-04-10T19:54:04;100771.09;;;12.78;72.59
33795;BME280;51430;52.242;21.118;2023-04-10T19:56:32;100767.23;;;12.72;73.25
33795;BME280;51430;52.242;21.118;2023-04-10T19:59:01;100759.58;;;12.51;73.93
33795;BME280;51430;52.242;21.118;2023-04-10T20:01:29;100758.05;;;12.35;74.14
33795;BME280;51430;52.242;21.118;2023-04-10T20:03:58;100756.52;;;12.18;74.62
33795;BME280;51430;52.242;21.118;2023-04-10T20:06:26;100760.67;;;12.10;75.01
33795;BME280;51430;52.242;21.118;2023-04-10T20:08:54;100756.50;;;12.05;75.42
33795;BME280;51430;52.242;21.118;2023-04-10T20:11:22;100752.83;;;12.03;75.43
33795;BME280;51430;52.242;21.118;2023-04-10T20:13:51;100747.45;;;11.97;75.70
33795;BME280;51430;52.242;21.118;2023-04-10T20:16:19;100744.44;;;11.93;75.59
33795;BME280;51430;52.242;21.118;2023-04-10T20:18:47;100744.31;;;11.91;75.55
33795;BME280;51430;52.242;21.118;2023-04-10T20:21:15;100742.35;;;11.89;75.85
33795;BME280;51430;52.242;21.118;2023-04-10T20:23:43;100740.81;;;11.86;75.92
33795;BME280;51430;52.242;21.118;2023-04-10T20:26:11;100734.63;;;11.73;75.94
33795;BME280;51430;52.242;21.118;2023-04-10T20:28:39;100736.75;;;11.60;76.74
33795;BME280;51430;52.242;21.118;2023-04-10T20:31:07;100737.20;;;11.52;77.11
33795;BME280;51430;52.242;21.118;2023-04-10T20:33:37;100736.79;;;11.46;77.30
33795;BME280;51430;52.242;21.118;2023-04-10T20:36:05;100732.14;;;11.42;77.80
33795;BME280;51430;52.242;21.118;2023-04-10T20:38:33;100732.40;;;11.37;77.90
33795;BME280;51430;52.242;21.118;2023-04-10T20:41:01;100735.03;;;11.24;78.32
33795;BME280;51430;52.242;21.118;2023-04-10T20:43:29;100733.89;;;11.21;78.56
33795;BME280;51430;52.242;21.118;2023-04-10T20:46:04;100732.55;;;11.13;78.80
33795;BME280;51430;52.242;21.118;2023-04-10T20:48:34;100728.11;;;11.07;78.89
33795;BME280;51430;52.242;21.118;2023-04-10T20:51:05;100730.86;;;11.03;79.19
33795;BME280;51430;52.242;21.118;2023-04-10T20:53:32;100728.76;;;10.96;79.44
33795;BME280;51430;52.242;21.118;2023-04-10T20:56:00;100728.90;;;10.96;79.71
33795;BME280;51430;52.242;21.118;2023-04-10T20:58:32;100727.30;;;10.94;79.64
33795;BME280;51430;52.242;21.118;2023-04-10T21:00:59;100722.39;;;10.92;79.74
33795;BME280;51430;52.242;21.118;2023-04-10T21:03:28;100723.63;;;10.87;79.73
33795;BME280;51430;52.242;21.118;2023-04-10T21:05:56;100724.73;;;10.84;79.97
33795;BME280;51430;52.242;21.118;2023-04-10T21:08:24;100723.48;;;10.77;80.44
33795;BME280;51430;52.242;21.118;2023-04-10T21:10:52;100724.00;;;10.72;80.43
33795;BME280;51430;52.242;21.118;2023-04-10T21:13:20;100721.05;;;10.65;80.73
33795;BME280;51430;52.242;21.118;2023-04-10T21:15:47;100721.77;;;10.55;81.60
33795;BME280;51430;52.242;21.118;2023-04-10T21:18:16;100721.93;;;10.45;82.93
33795;BME280;51430;52.242;21.118;2023-04-10T21:20:43;100719.56;;;10.39;84.37
33795;BME280;51430;52.242;21.118;2023-04-10T21:23:11;100718.31;;;10.34;84.43
33795;BME280;51430;52.242;21.118;2023-04-10T21:25:39;100714.42;;;10.33;84.98
33795;BME280;51430;52.242;21.118;2023-04-10T21:28:07;100709.01;;;10.30;85.50
33795;BME280;51430;52.242;21.118;2023-04-10T21:30:35;100708.63;;;10.31;84.73
33795;BME280;51430;52.242;21.118;2023-04-10T21:33:04;100714.15;;;10.24;83.79
33795;BME280;51430;52.242;21.118;2023-04-10T21:35:32;100712.89;;;10.25;83.71
33795;BME280;51430;52.242;21.118;2023-04-10T21:38:02;100706.80;;;10.20;83.51
33795;BME280;51430;52.242;21.118;2023-04-10T21:40:30;100707.52;;;10.16;83.61
33795;BME280;51430;52.242;21.118;2023-04-10T21:43:01;100703.39;;;10.11;83.46
33795;BME280;51430;52.242;21.118;2023-04-10T21:45:30;100702.86;;;10.05;83.56
33795;BME280;51430;52.242;21.118;2023-04-10T21:47:57;100700.95;;;10.03;83.73
33795;BME280;51430;52.242;21.118;2023-04-10T21:50:27;100700.31;;;9.97;83.79
33795;BME280;51430;52.242;21.118;2023-04-10T21:52:55;100700.05;;;9.93;83.76
33795;BME280;51430;52.242;21.118;2023-04-10T21:55:23;100694.39;;;9.89;84.14
33795;BME280;51430;52.242;21.118;2023-04-10T21:57:51;100692.49;;;9.86;84.47
33795;BME280;51430;52.242;21.118;2023-04-10T22:00:18;100690.52;;;9.87;84.22
33795;BME280;51430;52.242;21.118;2023-04-10T22:02:49;100692.54;;;9.75;84.04
33795;BME280;51430;52.242;21.118;2023-04-10T22:05:17;100688.80;;;9.66;84.40
33795;BME280;51430;52.242;21.118;2023-04-10T22:07:47;100683.81;;;9.55;84.87
33795;BME280;51430;52.242;21.118;2023-04-10T22:10:15;100680.88;;;9.49;85.56
33795;BME280;51430;52.242;21.118;2023-04-10T22:12:43;100683.16;;;9.47;86.40
33795;BME280;51430;52.242;21.118;2023-04-10T22:15:15;100677.89;;;9.42;87.25
33795;BME280;51430;52.242;21.118;2023-04-10T22:17:43;100672.55;;;9.42;87.62
33795;BME280;51430;52.242;21.118;2023-04-10T22:20:11;100670.00;;;9.38;87.90
33795;BME280;51430;52.242;21.118;2023-04-10T22:22:39;100668.39;;;9.38;88.39
33795;BME280;51430;52.242;21.118;2023-04-10T22:25:07;100668.70;;;9.39;88.32
33795;BME280;51430;52.242;21.118;2023-04-10T22:27:34;100662.88;;;9.35;87.70
33795;BME280;51430;52.242;21.118;2023-04-10T22:30:02;100660.98;;;9.32;87.38
33795;BME280;51430;52.242;21.118;2023-04-10T22:32:31;100659.88;;;9.30;87.36
33795;BME280;51430;52.242;21.118;2023-04-10T22:34:59;100664.21;;;9.25;87.48
33795;BME280;51430;52.242;21.118;2023-04-10T22:37:27;100669.31;;;9.14;87.88
33795;BME280;51430;52.242;21.118;2023-04-10T22:39:54;100663.13;;;9.07;88.51
33795;BME280;51430;52.242;21.118;2023-04-10T22:42:22;100657.08;;;9.04;88.54
33795;BME280;51430;52.242;21.118;2023-04-10T22:44:50;100655.46;;;9.02;88.69
33795;BME280;51430;52.242;21.118;2023-04-10T22:47:18;100653.08;;;8.97;89.24
33795;BME280;51430;52.242;21.118;2023-04-10T22:49:46;100650.53;;;8.90;89.63
33795;BME280;51430;52.242;21.118;2023-04-10T22:52:14;100645.59;;;8.80;90.32
33795;BME280;51430;52.242;21.118;2023-04-10T22:54:42;100643.14;;;8.78;90.95
33795;BME280;51430;52.242;21.118;2023-04-10T22:57:10;100635.73;;;8.83;91.18
33795;BME280;51430;52.242;21.118;2023-04-10T22:59:38;100635.64;;;8.81;90.88
33795;BME280;51430;52.242;21.118;2023-04-10T23:02:06;100636.77;;;8.80;90.80
33795;BME280;51430;52.242;21.118;2023-04-10T23:04:36;100629.13;;;8.80;90.90
33795;BME280;51430;52.242;21.118;2023-04-10T23:07:04;100627.96;;;8.76;91.21
33795;BME280;51430;52.242;21.118;2023-04-10T23:09:32;100627.21;;;8.74;91.20
33795;BME280;51430;52.242;21.118;2023-04-10T23:12:00;100625.83;;;8.72;90.85
33795;BME280;51430;52.242;21.118;2023-04-10T23:14:28;100631.45;;;8.63;90.97
33795;BME280;51430;52.242;21.118;2023-04-10T23:16:56;100626.23;;;8.55;91.26
33795;BME280;51430;52.242;21.118;2023-04-10T23:19:24;100621.95;;;8.54;91.56
33795;BME280;51430;52.242;21.118;2023-04-10T23:21:51;100620.83;;;8.52;91.88
33795;BME280;51430;52.242;21.118;2023-04-10T23:24:20;100617.40;;;8.49;91.81
33795;BME280;51430;52.242;21.118;2023-04-10T23:26:47;100609.17;;;8.47;91.73
33795;BME280;51430;52.242;21.118;2023-04-10T23:29:15;100607.88;;;8.48;91.46
33795;BME280;51430;52.242;21.118;2023-04-10T23:31:43;100598.26;;;8.46;91.64
33795;BME280;51430;52.242;21.118;2023-04-10T23:34:11;100594.89;;;8.42;91.92
33795;BME280;51430;52.242;21.118;2023-04-10T23:36:39;100592.02;;;8.38;91.83
33795;BME280;51430;52.242;21.118;2023-04-10T23:39:07;100592.70;;;8.30;92.06
33795;BME280;51430;52.242;21.118;2023-04-10T23:41:35;100586.20;;;8.20;92.36
33795;BME280;51430;52.242;21.118;2023-04-10T23:44:03;100583.02;;;8.12;92.54
33795;BME280;51430;52.242;21.118;2023-04-10T23:46:30;100579.70;;;8.07;92.60
33795;BME280;51430;52.242;21.118;2023-04-10T23:48:58;100577.00;;;8.06;92.78
33795;BME280;51430;52.242;21.118;2023-04-10T23:51:26;100576.00;;;8.05;93.20
33795;BME280;51430;52.242;21.118;2023-04-10T23:53:54;100573.72;;;8.06;93.14
33795;BME280;51430;52.242;21.118;2023-04-10T23:56:22;100568.34;;;8.03;92.98
33795;BME280;51430;52.242;21.118;2023-04-10T23:58:55;100567.69;;;7.99;92.90
